Glasgow, MT

2:08 PM MST on February 12, 2016 (GMT -0700)
APRSWXNET | | Change Station
CLOSE
Current Station
Personal Weather Station
Location: Glasgow, MT
Elevation: 2211 ft
Nearby Weather Stations

Elev 2211 ft 48.19 °N, 106.61 °W | Updated 24 minutes ago

Overcast
Overcast
17 °F
Feels Like 0 °F
N
20
Wind Variable Wind from ENE
Gusts 25.0 mph

Today
High -- | Low -- °F
--% Chance of Precip.
Yesterday
High -- | Low -- °F
Precip. -- in
Pressure 30.46 in
Visibility 10.0 miles
Clouds Overcast 1500 ft
Windchill 0 °F
Dew Point 10 °F
Humidity 73%
Rainfall in
Snow Depth Not available.
7:18 AM 5:22 PM
Waxing Crescent, 23% visible
METAR KGGW 122053Z AUTO 11017KT 10SM OVC015 M08/M12 A3033 RMK AO2 SLP313 T10831122 58028
Pressure 30.46 in
Visibility 10.0 miles
Clouds Overcast 1500 ft
Windchill 0 °F
Dew Point 10 °F
Humidity 73%
Rainfall in
Snow Depth Not available.
7:18 AM 5:22 PM
Waxing Crescent, 23% visible
METAR KGGW 122053Z AUTO 11017KT 10SM OVC015 M08/M12 A3033 RMK AO2 SLP313 T10831122 58028

10-Day Weather Forecast

Almanac

Astronomy

Feb. 12, 2016 Rise Set
Actual Time
Civil Twilight
Nautical Twilight
Astronomical Twilight
Moon
Length of Visible Light
Length of Day
Tomorrow will be .
, % of the Moon is Illuminated

Today's Extremes

State Highs State Lows

Community

WunderPhotos

Upload Photos

1,892,397 photos uploaded!

WunderBlog® & News

Nearby

Air Quality

  Air Quality AQ Index Pollutant
Not available.

Snow Depth

Station Depth Elevation

Earthquake Activity

City Distance Mag. Time & Date
Minimum magnitude displayed is 2.5.

Coastal Water Temperatures

Place Temperature

Stations

Nearby Weather Stations

Station Location Temp. Windchill Dew Point Humidity Wind Precip. Elev Updated Type
                   

Watches & Warnings

There are currently no watches in effect.